Regionale Übersicht

METAR und TAF

Donnerstag, 15. April 2021 - 13:05 Uhr

Beobachtete horizontale meteorologische Sicht an ausgewählten Flughäfen. Die vollständigen METARs und Flugwettervorhersagen (TAFs) sind verfügbar, wenn Sie auf das entsprechende Symbol mit der ICAO-Flughafenkennung klicken.

  • Luxemburg (ELLX)

    Taf: TAF ELLX 150500Z 1506/1612 03010KT CAVOK PROB30 TEMPO 1506/1508 3000 BR PROB40 TEMPO 1511/1518 05015G25KT -SHSN SCT040TCU=

    Metar: METAR ELLX 151050Z 03011KT 350V080 9999 FEW030 FEW035TCU SCT042 07/M03 Q1027 NOSIG=

  • Spangdahlem (ETAD)

    Taf: TAF AMD ETAD 150840Z 1508/1610 05010KT 9999 SCT020 BKN030 620202 QNH3033INS BECMG 1515/1516 03010G20KT 9000 -SHRA SCT030 BKN050 610502 QNH3030INS BECMG 1519/1520 03007KT 9999 NSW SCT050 QNH3027INS TEMPO 1602/1609 OVC020 620206 BECMG 1609/1610 05010G15KT 9999 BKN020 620206 QNH3028INS TX08/1512Z TN04/1509Z=

    Metar: METAR ETAD 151056Z AUTO 02012G17KT 9999 SCT045 BKN055 07/M03 A3035 RMK AO2 SLP284 T00721034 $=

  • Metz/Nancy (LFJL)

    Taf: TAF AMD LFJL 150805Z 1508/1606 02008KT CAVOK PROB40 TEMPO 1508/1509 5000 BR TEMPO 1511/1517 04012G22KT FEW040TCU BECMG 1603/1605 OVC040=

    Metar: METAR LFJL 151030Z AUTO 07009KT 030V110 9999 SCT042 BKN054 BKN070 08/M02 Q1027 TEMPO FEW040TCU=

  • Saarbrücken/Intl (EDDR)

    Taf: TAF EDDR 150500Z 1506/1606 05005KT 9999 FEW030 BECMG 1507/1509 05011KT PROB30 TEMPO 1512/1516 4000 SHRAGS BKN030CB BECMG 1517/1519 05006KT=

    Metar: METAR EDDR 151050Z 05009KT 350V100 9999 SCT045 08/M02 Q1027 NOSIG=

  • Hahn (EDFH)

    Taf: TAF EDFH 150600Z NIL=

    Metar: METAR EDFH 151050Z 03010KT 360V100 9999 SCT032 05/M03 Q1027=

  • Ramstein (ETAR)

    Taf: TAF ETAR 151000Z 1510/1616 04010KT 9999 FEW030 SCT040 QNH3028INS TEMPO 1510/1516 05010G20KT 9000 -SHRA BKN030 610406 510004 BECMG 1516/1517 04006KT 9999 SCT050 QNH3026INS BECMG 1608/1609 03010KT 9999 BKN025 620258 QNH3024INS TEMPO 1610/1616 05010G20KT 9000 -SHRA 510004 TX09/1515Z TNM05/1604Z=

    Metar: METAR ETAR 151056Z AUTO 02004KT 9999 FEW019 SCT050 06/M02 A3034 RMK AO2 RAB13E28 SLP290 P0000 T00621024 FZRANO $=

  • Nancy/Ochey (LFSO)

    Taf: TAF LFSO 150800Z 1509/1609 03008KT CAVOK PROB40 TEMPO 1510/1518 4000 -SHRA FEW050TCU=

    Metar: METAR LFSO 151030Z AUTO 06010KT 020V090 9999 FEW042 BKN058 06/M04 Q1027 TEMPO 4000 -SHRA FEW050TCU=

  • Liège Bierset (EBLG)

    Taf: TAF EBLG 150510Z 1506/1612 04008KT 9999 SCT020=

    Metar: METAR EBLG 151050Z 01007KT 330V040 9999 FEW021 BKN031 05/00 Q1030 NOSIG=

  • Saint-Dizier (LFSI)

    Taf: TAF LFSI 150800Z 1509/1609 05010KT 9999 SCT035 TEMPO 1510/1515 -SHRA BKN050TCU BKN070=

    Metar: METAR LFSI 151030Z AUTO 03010KT 360V060 CAVOK 08/M03 Q1028=

  • Maastricht/Zuid Limburg (EHBK)

    Taf: TAF EHBK 150505Z 1506/1612 35004KT CAVOK PROB30 1506/1509 4000 BR BKN004=

    Metar: METAR EHBK 151055Z AUTO 33004KT 270V040 9999 FEW027 06/01 Q1030 NOSIG=

  • Köln/Köln-Bonn (EDDK)

    Taf: TAF EDDK 150500Z 1506/1612 VRB02KT CAVOK BECMG 1507/1510 02009KT BECMG 1518/1521 04004KT BECMG 1608/1611 02009KT=

    Metar: METAR EDDK 151050Z VRB03KT 9999 VCSH FEW035TCU SCT043 08/M03 Q1029 NOSIG=

  • Charleroi (EBCI)

    Taf: TAF EBCI 150510Z 1506/1612 04008KT 9999 SCT020=

    Metar: METAR EBCI 151050Z 04008KT 9999 SCT025 06/M01 Q1030 NOSIG=

  • Wiesbaden (ETOU)

    Taf: TAF ETOU 150300Z 1503/1609 VRB06KT 9999 SCT020 QNH3036INS TEMPO 1509/1514 8000 -RA BKN030 620306 BECMG 1515/1516 03010G15KT 9999 BKN060 QNH3031INS BECMG 1522/1523 VRB06KT 9999 SCT030 QNH3029INS BECMG 1607/1608 03010G15KT 9999 BKN020 QNH3031INS TX08/1515Z TN00/1505Z=

    Metar: METAR ETOU 151056Z 01005KT 9999 FEW070 FEW170 SCT200 07/02 A3039 RMK AO2A SLPNO RVRNO PWINO PNO FZRANO TSNO VISNO RWY25 CHINO RWY25 $=

  • Karlsruhe/Baden-Baden (EDSB)

    Taf: TAF EDSB 150500Z 1506/1606 03005KT 9999 FEW035 BECMG 1506/1508 03012KT PROB30 TEMPO 1512/1516 4000 SHRAGS BKN035CB BECMG 1518/1520 03007KT=

    Metar: METAR EDSB 151050Z 02011KT 350V050 9999 FEW045 09/M01 Q1027=

  • Chalons/Vatry (LFOK)

    Taf: TAF LFOK 150500Z 1506/1606 01007KT CAVOK TEMPO 1509/1517 06017KT SCT040CB=

    Metar: METAR LFOK 151030Z AUTO 05013KT 9999 BKN036 BKN043 BKN050 07/M01 Q1028 TEMPO SCT040CB=

  • Frankfurt/Main (EDDF)

    Taf: TAF EDDF 150600Z NIL=

    Metar: METAR EDDF 151050Z 01007KT 260V060 9999 VCSH SCT039TCU 09/M03 Q1028 NOSIG=

  • Brüssel (EBBR)

    Taf: TAF EBBR 150510Z 1506/1612 04005KT 9999 SCT020=

    Metar: METAR EBBR 151050Z 07003KT 030V110 9999 SCT033 07/M01 Q1031 NOSIG=

  • Düsseldorf (EDDL)

    Taf: TAF EDDL 150500Z 1506/1612 VRB03KT CAVOK BECMG 1508/1511 03009KT BECMG 1518/1521 02004KT BECMG 1607/1610 03010KT=

    Metar: METAR EDDL 151050Z VRB06KT 9999 SCT036 08/M01 Q1030 NOSIG=

  • Luxeuil (LFSX)

    Taf: TAF LFSX 150800Z 1509/1609 VRB02KT CAVOK BECMG 1509/1511 04012KT PROB30 TEMPO 1511/1516 04015G25KT 4900 SHRAGS BKN035TCU BECMG 1522/1524 VRB02KT=

    Metar: METAR LFSX 151030Z AUTO 01008KT 320V040 9999 FEW049 BKN066 OVC082 07/M03 Q1025=

  • Eindhoven (EHEH)

    Taf: TAF AMD EHEH 150849Z 1508/1612 04005KT 9999 FEW016 SCT018 BECMG 1509/1510 SCT022=

    Metar: METAR EHEH 151055Z AUTO 04004KT 010V090 9999 OVC055 07/00 Q1031 BLU NOSIG=

  • Niederrhein (EDLV)

    Taf: TAF EDLV 150500Z NIL=

    Metar: METAR EDLV 151050Z NIL=

  • Dortmund/Wickede (EDLW)

    Taf: TAF EDLW 150500Z 1506/1606 VRB03KT CAVOK BECMG 1507/1510 04008KT BECMG 1517/1520 05003KT=

    Metar: METAR EDLW 151050Z 01006KT 330V040 9999 SCT029 BKN034 06/M01 Q1030=

  • Stuttgart/Echterdingen (EDDS)

    Taf: TAF EDDS 150500Z 1506/1606 01003KT 9999 FEW035 BECMG 1507/1509 02008KT PROB30 TEMPO 1512/1516 4000 SHRAGS BKN020CB BECMG 1519/1521 02003KT=

    Metar: METAR EDDS 151050Z VRB09G19KT 9999 -SHSNRA FEW020 BKN040CB 05/M05 Q1026 NOSIG=

  • Basel-Mühlhausen (LFSB)

    Taf: TAF LFSB 150500Z 1506/1606 35008KT 9999 SCT050 TEMPO 1510/1518 -SHRA SCT040TCU PROB40 TEMPO 1512/1516 01015G25KT 3000 SHRAGS SCT030CB PROB30 TEMPO 1603/1606 BKN006=

    Metar: METAR LFSB 151030Z 01009KT 330V050 9999 SCT036 FEW043TCU SCT066 07/M00 Q1025 NOSIG=

  • Lille (LFQQ)

    Taf: TAF LFQQ 150500Z 1506/1612 01008KT CAVOK PROB40 TEMPO 1509/1515 3000 SHRAGS BKN030CB TEMPO 1513/1519 07010KT BECMG 1607/1610 07012KT=

    Metar: METAR LFQQ 151030Z AUTO 34009KT 9999 FEW008 SCT044 OVC056 07/00 Q1031 TEMPO 3000 SHRAGS BKN030CB=

  • Paris/Charles de Gaulle (LFPG)

    Taf: TAF LFPG 150500Z 1506/1612 02010KT 8000 NSC TX11/1515Z TN01/1506Z BECMG 1506/1508 CAVOK PROB40 TEMPO 1515/1518 4000 -SHRA SCT045TCU=

    Metar: METAR LFPG 151030Z 03013KT 9999 SCT043 09/M01 Q1030 NOSIG=

  • Paderborn/Lippstadt (EDLP)

    Taf: TAF AMD EDLP 151006Z 1510/1606 VRB02KT 8000 BKN006 BECMG 1510/1512 03008KT SCT025 BECMG 1518/1521 VRB02KT=

    Metar: METAR EDLP 151050Z 31004KT 230V020 9999 FEW011 05/01 Q1030=

  • Paris/Le Bourget (LFPB)

    Taf: TAF LFPB 150600Z NIL=

    Metar: METAR LFPB 151030Z AUTO 02010KT 340V040 9999 BKN040 BKN048 BKN058 09/M00 Q1030 NOSIG=

  • Rotterdam (EHRD)

    Taf: TAF EHRD 150442Z 1506/1612 02004KT 9999 SCT025 BECMG 1507/1510 05009KT BECMG 1609/1612 02010KT=

    Metar: METAR EHRD 151055Z AUTO 04010KT 360V080 9999 NSC 07/01 Q1031 NOSIG=

  • Zürich/Kloten (LSZH)

    Taf: TAF AMD LSZH 151018Z 1510/1615 05009KT 9999 FEW032 TX08/1514Z TNM02/1604Z TX09/1614Z TEMPO 1510/1517 04012G25KT PROB40 TEMPO 1510/1516 4000 SHSNGS FEW030TCU BECMG 1518/1521 04005KT BECMG 1521/1524 VRB02KT CAVOK BECMG 1606/1609 05010KT TEMPO 1611/1615 04012G25KT=

    Metar: METAR LSZH 151050Z 07012KT 9999 FEW040TCU SCT070 06/M05 Q1024 TEMPO 4000 -SHSNGS=

  • Oostende/Intl (EBOS)

    Taf: TAF EBOS 150510Z 1506/1612 03009KT 9999 FEW018TCU PROB30 TEMPO 1506/1511 4000 SHRA=

    Metar: METAR EBOS 151050Z 01010KT 9999 FEW018TCU SCT045 07/03 Q1032 NOSIG=

  • Paris/Orly (LFPO)

    Taf: TAF LFPO 150600Z NIL=

    Metar: METAR LFPO 151030Z 03010KT 350V060 9999 SCT041 BKN056 08/M01 Q1029 NOSIG=

  • Beauvais (LFOB)

    Taf: TAF LFOB 150500Z 1506/1606 03008KT CAVOK PROB30 TEMPO 1514/1518 3000 SHRAGS BKN030CB=

    Metar: METAR LFOB 151030Z AUTO 05012KT 9999 FEW036 08/M01 Q1030 NOSIG=

  • Münster/Intl (EDDG)

    Taf: TAF EDDG 150500Z 1506/1606 VRB02KT 4000 BR NSC BECMG 1506/1508 9999 BECMG 1507/1510 02009KT BECMG 1519/1522 01004KT=

    Metar: METAR EDDG 151050Z VRB04KT 9999 VCSH FEW025TCU SCT031 08/M00 Q1030 NOSIG=

  • Illesheim (ETIK)

    Taf: TAF ETIK 150605Z 1506/1612 02009KT 9999 FEW030 QNH3032INS TEMPO 1511/1514 8000 -SHRASN BKN030 620309 BECMG 1516/1517 03010G15KT 9999 SCT020 QNH3028INS BECMG 1523/1600 03009KT 9999 OVC010 620109 QNH3028INS BECMG 1606/1607 03005KT 9999 OVC020 620209 QNH3027INS TX06/1513Z TNM03/1506Z=

    Metar: METAR ETIK 151056Z AUTO 30009KT 9999 -RA OVC029 03/M01 A3033 RMK AO2 RAB45 SLP292 P0000 T00341006 $=

  • Duebendorf (LSMD)

    Taf: TAF LSMD 150925Z 1510/1616 08010KT 9999 SCT026 BKN032 PROB40 TEMPO 1510/1516 4000 SHSNGS BKN014 BECMG 1521/1524 VRB02KT CAVOK TEMPO 1611/1616 06012G25KT=

    Metar: METAR LSMD 151050Z 04007KT 360V080 9999 SCT043 BKN050 BKN083 06/M05 Q1024 RMK BLU=

  • Villacoublay (LFPV)

    Taf: TAF LFPV 150800Z 1509/1609 03008KT CAVOK TX11/1515Z TN02/1603Z PROB40 TEMPO 1514/1516 -SHRA SCT040TCU=

    Metar: METAR LFPV 151030Z AUTO 05011KT 9999 SCT041 BKN048 BKN056 07/M02 Q1029 NOSIG=

  • Payerne (LSMP)

    Taf: TAF LSMP 150925Z 1510/1616 05017KT 9999 FEW035 BECMG 1517/1520 05005KT BECMG 1607/1610 05015KT=

    Metar: METAR LSMP 151050Z NIL=

  • Amsterdam/Schipol (EHAM)

    Taf: TAF EHAM 150442Z 1506/1612 02004KT 9999 SCT025 BECMG 1507/1510 06009KT BECMG 1522/1601 02004KT BECMG 1607/1610 05010KT=

    Metar: METAR EHAM 151055Z 07009KT 030V110 9999 FEW032 07/00 Q1032 NOSIG=

  • Emmen (LSME)

    Taf: TAF LSME 150925Z 1510/1616 07006KT 9999 FEW030 BKN045 TEMPO 1510/1516 4000 SHSNGS SCT020TCU TEMPO 1606/1612 CAVOK=

    Metar: METAR LSME 151050Z AUTO 01006KT 9999NDV SCT039 06/M03 Q1024 RMK=

  • Friedrichshafen (EDNY)

    Taf: TAF EDNY 150500Z 1506/1606 03008KT 9999 SCT020 BKN060=

    Metar: METAR EDNY 151050Z 05010KT 9999 FEW048 07/M06 Q1024=

  • Alpnach (LSMA)

    Taf: TAF LSMA 150925Z 1510/1616 06008G23KT 9999 SCT040 TEMPO 1510/1517 4000 SHSNGS SCT025TCU=

    Metar: METAR LSMA 151050Z AUTO 05009KT 350V080 9999NDV SCT056 BKN089 07/M01 Q1023 RMK=

  • Meiringen (LSMM)

    Taf: TAF LSMM 150925Z 1510/1616 05012G22KT 9999 SCT050 TEMPO 1510/1517 4000 SHSNGS SCT025TCU=

    Metar: METAR LSMM 151050Z AUTO 05013KT 340V130 9999NDV FEW055 06/M03 Q1022 RMK=

  • Nürnberg (EDDN)

    Taf: TAF EDDN 150500Z 1506/1606 VRB03KT CAVOK BECMG 1507/1509 01008KT PROB40 TEMPO 1509/1513 4000 SHSNRA BKN020TCU BECMG 1518/1520 VRB03KT BECMG 1523/1601 BKN010 TEMPO 1601/1606 3000 -SN BKN005=

    Metar: METAR EDDN 151050Z 28007KT 240V310 9999 SCT035CB 05/M05 Q1026 TEMPO 3000 SHSNRA=

  • Rouen (LFOP)

    Taf: TAF LFOP 150500Z 1506/1606 05008KT CAVOK PROB30 TEMPO 1514/1518 3000 SHRAGS BKN030CB=

    Metar: METAR LFOP 151030Z AUTO 07010KT 040V100 9999 FEW033 08/M01 Q1030 NOSIG=

  • Evreux (LFOE)

    Taf: TAF LFOE 150800Z 1509/1609 04010KT CAVOK BECMG 1510/1512 02012G22KT BKN045 PROB40 TEMPO 1512/1515 4000 SHRA SCT040TCU BECMG 1518/1520 01005KT=

    Metar: METAR LFOE 151030Z AUTO 05012KT 020V080 9999 SCT040 07/M02 Q1030 TEMPO 4000 SHRA SCT040TCU=

  • Erfurt/Bindersleben (EDDE)

    Taf: TAF EDDE 150500Z 1506/1606 27004KT 9999 SCT012 BKN025 BECMG 1507/1510 02012KT BECMG 1517/1519 02005KT PROB30 TEMPO 1601/1606 4500 -SNRA=

    Metar: METAR EDDE 151050Z 02012KT 350V050 9999 FEW026 FEW030CB SCT036 06/M04 Q1027 NOSIG=